Decoded Metar for EGOV (VALLEY in UK) (IATA:N/A) | Meteo·Mobile Aviation Weather
aviador You're here:

EGOV Decoded Metar

VALLEY in UK
Report Time2018-08-19 04:50:00
UTC Time2018-08-19 05:27:40
Flight Rules lifr LIFR
Wind220° at 21 kt
W.Decomp.*RWY 19: 17.6 kt HW 11.4 kt RCW
RWY 31: 1.1 kt HW 21 kt LCW
W.Rank220° ranks 5
Current wind is above 220° avg. (14.3)
Visibility6000 m
Phenomena:Mist
Clouds:Broken 004 Hf
Broken 025 Hf
Ceiling400 ft
Temp16°C (ISA +1)
Dew Point16°C (100% RH)
AAT10.4°C
QNH1011 hPa
Density Alt472 ft
Elevation36 ft
Report Wrong Elevation
Raw Report
METAR EGOV 190450Z AUTO 22021KT 6000 BR BKN004/// BKN025/// 16/16 Q1011=

Extra information for EGOV:More info

Metar Taf Metar & Taf Last 4 Metars F.Rules Stats Wind Profile Meteogram Temp Stats Airport Information Weather charts Add Link Nearby VenuesMetar ALERT Operation Metar Decoded Social comments